sensor_id;sensor_type;location;lat;lon;timestamp;temperature;humidity
6609;DHT22;61468;48.79282455;9.06262200;2022-08-01T00:00:16;25.50;1.00
6609;DHT22;61468;48.79282455;9.06262200;2022-08-01T00:03:00;25.50;1.00
6609;DHT22;61468;48.79282455;9.06262200;2022-08-01T00:05:44;25.50;1.00
6609;DHT22;61468;48.79282455;9.06262200;2022-08-01T00:08:29;25.50;1.00
6609;DHT22;61468;48.79282455;9.06262200;2022-08-01T00:11:13;25.50;1.00
6609;DHT22;61468;48.79282455;9.06262200;2022-08-01T00:13:58;25.40;1.00
6609;DHT22;61468;48.79282455;9.06262200;2022-08-01T00:16:42;25.40;1.00
6609;DHT22;61468;48.79282455;9.06262200;2022-08-01T00:19:26;25.40;1.00
6609;DHT22;61468;48.79282455;9.06262200;2022-08-01T00:22:10;25.40;1.00
6609;DHT22;61468;48.79282455;9.06262200;2022-08-01T00:24:54;25.30;1.00
6609;DHT22;61468;48.79282455;9.06262200;2022-08-01T00:27:38;25.30;1.00
6609;DHT22;61468;48.79282455;9.06262200;2022-08-01T00:30:22;25.30;1.00
6609;DHT22;61468;48.79282455;9.06262200;2022-08-01T00:33:06;25.30;1.00
6609;DHT22;61468;48.79282455;9.06262200;2022-08-01T00:35:50;25.30;1.00
6609;DHT22;61468;48.79282455;9.06262200;2022-08-01T00:38:34;25.30;1.00
6609;DHT22;61468;48.79282455;9.06262200;2022-08-01T00:41:18;25.30;1.00
6609;DHT22;61468;48.79282455;9.06262200;2022-08-01T00:44:04;25.30;1.00
6609;DHT22;61468;48.79282455;9.06262200;2022-08-01T00:46:49;25.30;1.00
6609;DHT22;61468;48.79282455;9.06262200;2022-08-01T00:49:33;25.30;1.00
6609;DHT22;61468;48.79282455;9.06262200;2022-08-01T00:52:17;25.30;1.00
6609;DHT22;61468;48.79282455;9.06262200;2022-08-01T00:55:02;25.20;1.00
6609;DHT22;61468;48.79282455;9.06262200;2022-08-01T00:57:47;25.20;1.00
6609;DHT22;61468;48.79282455;9.06262200;2022-08-01T01:00:33;25.20;1.00
6609;DHT22;61468;48.79282455;9.06262200;2022-08-01T01:03:18;25.20;1.00
6609;DHT22;61468;48.79282455;9.06262200;2022-08-01T01:09:35;25.20;1.00
6609;DHT22;61468;48.79282455;9.06262200;2022-08-01T01:12:29;25.10;1.00
6609;DHT22;61468;48.79282455;9.06262200;2022-08-01T01:15:36;25.10;1.00
6609;DHT22;61468;48.79282455;9.06262200;2022-08-01T01:18:33;25.10;1.00
6609;DHT22;61468;48.79282455;9.06262200;2022-08-01T01:27:29;25.10;1.00
6609;DHT22;61468;48.79282455;9.06262200;2022-08-01T01:30:18;25.10;1.00
6609;DHT22;61468;48.79282455;9.06262200;2022-08-01T01:33:03;25.10;1.00
6609;DHT22;61468;48.79282455;9.06262200;2022-08-01T01:35:52;25.00;1.00
6609;DHT22;61468;48.79282455;9.06262200;2022-08-01T01:38:41;25.00;1.00
6609;DHT22;61468;48.79282455;9.06262200;2022-08-01T01:41:27;25.00;1.00
6609;DHT22;61468;48.79282455;9.06262200;2022-08-01T01:44:13;25.00;1.00
6609;DHT22;61468;48.79282455;9.06262200;2022-08-01T01:46:59;25.00;1.00
6609;DHT22;61468;48.79282455;9.06262200;2022-08-01T01:49:45;25.00;1.00
6609;DHT22;61468;48.79282455;9.06262200;2022-08-01T01:52:31;25.00;1.00
6609;DHT22;61468;48.79282455;9.06262200;2022-08-01T01:55:17;25.00;1.00
6609;DHT22;61468;48.79282455;9.06262200;2022-08-01T01:58:03;25.00;1.00
6609;DHT22;61468;48.79282455;9.06262200;2022-08-01T02:00:50;25.00;1.00
6609;DHT22;61468;48.79282455;9.06262200;2022-08-01T02:03:35;25.00;1.00
6609;DHT22;61468;48.79282455;9.06262200;2022-08-01T02:06:20;25.00;1.00
6609;DHT22;61468;48.79282455;9.06262200;2022-08-01T02:09:07;25.00;1.00
6609;DHT22;61468;48.79282455;9.06262200;2022-08-01T02:11:53;25.00;1.00
6609;DHT22;61468;48.79282455;9.06262200;2022-08-01T02:14:38;25.00;1.00
6609;DHT22;61468;48.79282455;9.06262200;2022-08-01T02:17:26;25.00;1.00
6609;DHT22;61468;48.79282455;9.06262200;2022-08-01T02:20:11;25.00;1.00
6609;DHT22;61468;48.79282455;9.06262200;2022-08-01T02:23:01;25.00;1.00
6609;DHT22;61468;48.79282455;9.06262200;2022-08-01T02:25:52;25.00;1.00
6609;DHT22;61468;48.79282455;9.06262200;2022-08-01T02:28:55;25.00;1.00
6609;DHT22;61468;48.79282455;9.06262200;2022-08-01T02:31:41;25.00;1.00
6609;DHT22;61468;48.79282455;9.06262200;2022-08-01T02:34:29;25.00;1.00
6609;DHT22;61468;48.79282455;9.06262200;2022-08-01T02:37:17;25.00;1.00
6609;DHT22;61468;48.79282455;9.06262200;2022-08-01T02:40:04;25.00;1.00
6609;DHT22;61468;48.79282455;9.06262200;2022-08-01T02:42:51;24.90;1.00
6609;DHT22;61468;48.79282455;9.06262200;2022-08-01T02:45:40;25.00;1.00
6609;DHT22;61468;48.79282455;9.06262200;2022-08-01T02:48:27;25.00;1.00
6609;DHT22;61468;48.79282455;9.06262200;2022-08-01T02:51:12;25.00;1.00
6609;DHT22;61468;48.79282455;9.06262200;2022-08-01T02:53:59;25.00;1.00
6609;DHT22;61468;48.79282455;9.06262200;2022-08-01T02:56:46;25.00;1.00
6609;DHT22;61468;48.79282455;9.06262200;2022-08-01T02:59:32;25.00;1.00
6609;DHT22;61468;48.79282455;9.06262200;2022-08-01T03:02:18;25.00;1.00
6609;DHT22;61468;48.79282455;9.06262200;2022-08-01T03:05:03;25.00;1.00
6609;DHT22;61468;48.79282455;9.06262200;2022-08-01T03:07:48;24.90;1.00
6609;DHT22;61468;48.79282455;9.06262200;2022-08-01T03:10:35;25.00;1.00
6609;DHT22;61468;48.79282455;9.06262200;2022-08-01T03:13:21;24.90;1.00
6609;DHT22;61468;48.79282455;9.06262200;2022-08-01T03:16:06;24.90;1.00
6609;DHT22;61468;48.79282455;9.06262200;2022-08-01T03:18:53;24.90;1.00
6609;DHT22;61468;48.79282455;9.06262200;2022-08-01T03:21:41;24.90;1.00
6609;DHT22;61468;48.79282455;9.06262200;2022-08-01T03:24:27;24.90;1.00
6609;DHT22;61468;48.79282455;9.06262200;2022-08-01T03:27:14;24.90;1.00
6609;DHT22;61468;48.79282455;9.06262200;2022-08-01T03:29:58;24.90;1.00
6609;DHT22;61468;48.79282455;9.06262200;2022-08-01T03:32:43;24.90;1.00
6609;DHT22;61468;48.79282455;9.06262200;2022-08-01T03:35:30;24.90;1.00
6609;DHT22;61468;48.79282455;9.06262200;2022-08-01T03:38:19;24.90;1.00
6609;DHT22;61468;48.79282455;9.06262200;2022-08-01T03:41:21;24.90;1.00
6609;DHT22;61468;48.79282455;9.06262200;2022-08-01T03:44:15;24.90;1.00
6609;DHT22;61468;48.79282455;9.06262200;2022-08-01T03:47:05;24.90;1.00
6609;DHT22;61468;48.79282455;9.06262200;2022-08-01T03:49:52;24.90;1.00
6609;DHT22;61468;48.79282455;9.06262200;2022-08-01T03:52:39;24.90;1.00
6609;DHT22;61468;48.79282455;9.06262200;2022-08-01T03:55:26;24.80;1.00
6609;DHT22;61468;48.79282455;9.06262200;2022-08-01T03:58:11;24.80;1.00
6609;DHT22;61468;48.79282455;9.06262200;2022-08-01T04:00:57;24.80;1.00
6609;DHT22;61468;48.79282455;9.06262200;2022-08-01T04:03:43;24.80;1.00
6609;DHT22;61468;48.79282455;9.06262200;2022-08-01T04:06:27;24.80;1.00
6609;DHT22;61468;48.79282455;9.06262200;2022-08-01T04:09:12;24.80;1.00
6609;DHT22;61468;48.79282455;9.06262200;2022-08-01T04:11:58;24.80;1.00
6609;DHT22;61468;48.79282455;9.06262200;2022-08-01T04:14:43;24.80;1.00
6609;DHT22;61468;48.79282455;9.06262200;2022-08-01T04:17:27;24.80;1.00
6609;DHT22;61468;48.79282455;9.06262200;2022-08-01T04:20:12;24.80;1.00
6609;DHT22;61468;48.79282455;9.06262200;2022-08-01T04:22:56;24.80;1.00
6609;DHT22;61468;48.79282455;9.06262200;2022-08-01T04:25:40;24.80;1.00
6609;DHT22;61468;48.79282455;9.06262200;2022-08-01T04:28:26;24.80;1.00
6609;DHT22;61468;48.79282455;9.06262200;2022-08-01T04:31:12;24.80;1.00
6609;DHT22;61468;48.79282455;9.06262200;2022-08-01T04:33:58;24.80;1.00
6609;DHT22;61468;48.79282455;9.06262200;2022-08-01T04:36:44;24.80;1.00
6609;DHT22;61468;48.79282455;9.06262200;2022-08-01T04:39:31;24.90;1.00
6609;DHT22;61468;48.79282455;9.06262200;2022-08-01T04:42:16;24.90;1.00
6609;DHT22;61468;48.79282455;9.06262200;2022-08-01T04:45:00;24.80;1.00
6609;DHT22;61468;48.79282455;9.06262200;2022-08-01T04:47:45;24.80;1.00
6609;DHT22;61468;48.79282455;9.06262200;2022-08-01T04:50:31;24.80;1.00
6609;DHT22;61468;48.79282455;9.06262200;2022-08-01T04:53:17;24.90;1.00
6609;DHT22;61468;48.79282455;9.06262200;2022-08-01T04:56:02;24.90;1.00
6609;DHT22;61468;48.79282455;9.06262200;2022-08-01T04:58:46;25.00;1.00
6609;DHT22;61468;48.79282455;9.06262200;2022-08-01T05:01:30;25.00;1.00
6609;DHT22;61468;48.79282455;9.06262200;2022-08-01T05:04:14;25.00;1.00
6609;DHT22;61468;48.79282455;9.06262200;2022-08-01T05:06:58;25.00;1.00
6609;DHT22;61468;48.79282455;9.06262200;2022-08-01T05:09:42;24.90;1.00
6609;DHT22;61468;48.79282455;9.06262200;2022-08-01T05:12:26;24.90;1.00
6609;DHT22;61468;48.79282455;9.06262200;2022-08-01T05:15:10;24.90;1.00
6609;DHT22;61468;48.79282455;9.06262200;2022-08-01T05:17:54;24.80;1.00
6609;DHT22;61468;48.79282455;9.06262200;2022-08-01T05:20:39;24.80;1.00
6609;DHT22;61468;48.79282455;9.06262200;2022-08-01T05:23:24;24.80;1.00
6609;DHT22;61468;48.79282455;9.06262200;2022-08-01T05:26:09;24.80;1.00
6609;DHT22;61468;48.79282455;9.06262200;2022-08-01T05:28:54;24.90;1.00
6609;DHT22;61468;48.79282455;9.06262200;2022-08-01T05:31:38;24.80;1.00
6609;DHT22;61468;48.79282455;9.06262200;2022-08-01T05:34:22;24.90;1.00
6609;DHT22;61468;48.79282455;9.06262200;2022-08-01T05:37:06;24.90;1.00
6609;DHT22;61468;48.79282455;9.06262200;2022-08-01T05:39:51;24.80;1.00
6609;DHT22;61468;48.79282455;9.06262200;2022-08-01T05:42:35;24.80;1.00
6609;DHT22;61468;48.79282455;9.06262200;2022-08-01T05:45:19;24.80;1.00
6609;DHT22;61468;48.79282455;9.06262200;2022-08-01T05:48:04;24.80;1.00
6609;DHT22;61468;48.79282455;9.06262200;2022-08-01T05:50:48;24.80;1.00
6609;DHT22;61468;48.79282455;9.06262200;2022-08-01T05:53:33;24.80;1.00
6609;DHT22;61468;48.79282455;9.06262200;2022-08-01T05:56:18;24.90;1.00
6609;DHT22;61468;48.79282455;9.06262200;2022-08-01T05:59:03;24.80;1.00
6609;DHT22;61468;48.79282455;9.06262200;2022-08-01T06:01:46;24.80;1.40
6609;DHT22;61468;48.79282455;9.06262200;2022-08-01T06:04:31;24.90;1.00
6609;DHT22;61468;48.79282455;9.06262200;2022-08-01T06:07:15;24.90;1.00
6609;DHT22;61468;48.79282455;9.06262200;2022-08-01T06:09:59;24.80;1.00
6609;DHT22;61468;48.79282455;9.06262200;2022-08-01T06:12:43;24.90;1.00
6609;DHT22;61468;48.79282455;9.06262200;2022-08-01T06:15:27;24.90;1.00
6609;DHT22;61468;48.79282455;9.06262200;2022-08-01T06:18:11;25.00;1.00
6609;DHT22;61468;48.79282455;9.06262200;2022-08-01T06:20:55;24.90;1.00
6609;DHT22;61468;48.79282455;9.06262200;2022-08-01T06:23:39;24.90;1.00
6609;DHT22;61468;48.79282455;9.06262200;2022-08-01T06:26:25;24.90;1.00
6609;DHT22;61468;48.79282455;9.06262200;2022-08-01T06:29:09;24.90;1.00
6609;DHT22;61468;48.79282455;9.06262200;2022-08-01T06:31:53;24.90;1.00
6609;DHT22;61468;48.79282455;9.06262200;2022-08-01T06:34:37;24.90;1.00
6609;DHT22;61468;48.79282455;9.06262200;2022-08-01T06:37:21;25.00;1.00
6609;DHT22;61468;48.79282455;9.06262200;2022-08-01T06:40:08;25.00;1.00
6609;DHT22;61468;48.79282455;9.06262200;2022-08-01T06:42:52;25.00;1.00
6609;DHT22;61468;48.79282455;9.06262200;2022-08-01T06:45:36;25.10;1.00
6609;DHT22;61468;48.79282455;9.06262200;2022-08-01T06:48:20;25.10;1.00
6609;DHT22;61468;48.79282455;9.06262200;2022-08-01T06:51:05;25.10;1.00
6609;DHT22;61468;48.79282455;9.06262200;2022-08-01T06:53:52;25.20;1.00
6609;DHT22;61468;48.79282455;9.06262200;2022-08-01T06:56:37;25.20;1.00
6609;DHT22;61468;48.79282455;9.06262200;2022-08-01T06:59:21;25.20;1.00
6609;DHT22;61468;48.79282455;9.06262200;2022-08-01T07:02:06;25.20;1.00
6609;DHT22;61468;48.79282455;9.06262200;2022-08-01T07:04:51;25.30;1.00
6609;DHT22;61468;48.79282455;9.06262200;2022-08-01T07:07:35;25.30;1.00
6609;DHT22;61468;48.79282455;9.06262200;2022-08-01T07:10:19;25.30;1.00
6609;DHT22;61468;48.79282455;9.06262200;2022-08-01T07:13:03;25.20;1.00
6609;DHT22;61468;48.79282455;9.06262200;2022-08-01T07:15:47;25.30;1.00
6609;DHT22;61468;48.79282455;9.06262200;2022-08-01T07:18:31;25.30;1.00
6609;DHT22;61468;48.79282455;9.06262200;2022-08-01T07:21:15;25.30;1.00
6609;DHT22;61468;48.79282455;9.06262200;2022-08-01T07:23:59;25.30;1.00
6609;DHT22;61468;48.79282455;9.06262200;2022-08-01T07:26:45;25.30;1.00
6609;DHT22;61468;48.79282455;9.06262200;2022-08-01T07:29:29;25.30;1.00
6609;DHT22;61468;48.79282455;9.06262200;2022-08-01T07:32:13;25.30;1.00
6609;DHT22;61468;48.79282455;9.06262200;2022-08-01T07:34:57;25.30;1.00
6609;DHT22;61468;48.79282455;9.06262200;2022-08-01T07:37:41;25.30;1.00
6609;DHT22;61468;48.79282455;9.06262200;2022-08-01T07:40:25;25.20;1.00
6609;DHT22;61468;48.79282455;9.06262200;2022-08-01T07:43:10;25.20;1.00
6609;DHT22;61468;48.79282455;9.06262200;2022-08-01T07:45:54;25.20;1.00
6609;DHT22;61468;48.79282455;9.06262200;2022-08-01T07:48:38;25.20;1.00
6609;DHT22;61468;48.79282455;9.06262200;2022-08-01T07:51:22;25.20;1.00
6609;DHT22;61468;48.79282455;9.06262200;2022-08-01T07:54:06;25.20;1.00
6609;DHT22;61468;48.79282455;9.06262200;2022-08-01T07:56:51;25.20;1.00
6609;DHT22;61468;48.79282455;9.06262200;2022-08-01T07:59:35;25.30;1.00
6609;DHT22;61468;48.79282455;9.06262200;2022-08-01T08:02:19;25.30;1.00
6609;DHT22;61468;48.79282455;9.06262200;2022-08-01T08:05:03;25.30;1.00
6609;DHT22;61468;48.79282455;9.06262200;2022-08-01T08:07:48;25.30;1.00
6609;DHT22;61468;48.79282455;9.06262200;2022-08-01T08:10:33;25.40;1.00
6609;DHT22;61468;48.79282455;9.06262200;2022-08-01T08:13:17;25.40;1.00
6609;DHT22;61468;48.79282455;9.06262200;2022-08-01T08:16:01;25.40;1.00
6609;DHT22;61468;48.79282455;9.06262200;2022-08-01T08:18:45;25.40;1.00
6609;DHT22;61468;48.79282455;9.06262200;2022-08-01T08:21:29;25.40;1.00
6609;DHT22;61468;48.79282455;9.06262200;2022-08-01T08:24:14;25.40;1.00
6609;DHT22;61468;48.79282455;9.06262200;2022-08-01T08:27:04;25.40;1.00
6609;DHT22;61468;48.79282455;9.06262200;2022-08-01T08:29:49;25.50;1.00
6609;DHT22;61468;48.79282455;9.06262200;2022-08-01T08:32:33;25.60;1.00
6609;DHT22;61468;48.79282455;9.06262200;2022-08-01T08:35:18;25.60;1.00
6609;DHT22;61468;48.79282455;9.06262200;2022-08-01T08:38:02;25.60;1.00
6609;DHT22;61468;48.79282455;9.06262200;2022-08-01T08:40:46;25.60;1.00
6609;DHT22;61468;48.79282455;9.06262200;2022-08-01T08:43:30;25.50;1.00
6609;DHT22;61468;48.79282455;9.06262200;2022-08-01T08:46:16;25.50;1.00
6609;DHT22;61468;48.79282455;9.06262200;2022-08-01T08:49:02;25.50;1.00
6609;DHT22;61468;48.79282455;9.06262200;2022-08-01T08:51:49;25.60;1.00
6609;DHT22;61468;48.79282455;9.06262200;2022-08-01T08:54:35;25.60;1.00
6609;DHT22;61468;48.79282455;9.06262200;2022-08-01T08:57:21;25.60;1.00
6609;DHT22;61468;48.79282455;9.06262200;2022-08-01T09:00:05;25.60;1.00
6609;DHT22;61468;48.79282455;9.06262200;2022-08-01T09:02:50;25.60;1.00
6609;DHT22;61468;48.79282455;9.06262200;2022-08-01T09:05:36;25.60;1.00
6609;DHT22;61468;48.79282455;9.06262200;2022-08-01T09:08:20;25.60;1.00
6609;DHT22;61468;48.79282455;9.06262200;2022-08-01T09:11:04;25.60;1.00
6609;DHT22;61468;48.79282455;9.06262200;2022-08-01T09:16:59;25.50;1.00
6609;DHT22;61468;48.79282455;9.06262200;2022-08-01T09:19:47;25.50;1.00
6609;DHT22;61468;48.79282455;9.06262200;2022-08-01T09:22:33;25.50;1.00
6609;DHT22;61468;48.79282455;9.06262200;2022-08-01T09:25:17;25.50;1.00
6609;DHT22;61468;48.79282455;9.06262200;2022-08-01T09:28:03;25.60;1.00
6609;DHT22;61468;48.79282455;9.06262200;2022-08-01T09:30:47;25.60;1.00
6609;DHT22;61468;48.79282455;9.06262200;2022-08-01T09:36:57;25.60;1.00
6609;DHT22;61468;48.79282455;9.06262200;2022-08-01T09:39:42;25.60;1.00
6609;DHT22;61468;48.79282455;9.06262200;2022-08-01T09:42:27;25.50;1.00
6609;DHT22;61468;48.79282455;9.06262200;2022-08-01T09:45:31;25.60;1.00
6609;DHT22;61468;48.79282455;9.06262200;2022-08-01T09:48:16;25.60;1.00
6609;DHT22;61468;48.79282455;9.06262200;2022-08-01T09:51:01;25.60;1.00
6609;DHT22;61468;48.79282455;9.06262200;2022-08-01T09:53:47;25.60;1.00
6609;DHT22;61468;48.79282455;9.06262200;2022-08-01T09:56:37;25.60;1.00
6609;DHT22;61468;48.79282455;9.06262200;2022-08-01T09:59:34;25.60;1.00
6609;DHT22;61468;48.79282455;9.06262200;2022-08-01T10:02:46;25.60;1.00
6609;DHT22;61468;48.79282455;9.06262200;2022-08-01T10:05:32;25.60;1.00
6609;DHT22;61468;48.79282455;9.06262200;2022-08-01T10:08:17;25.60;1.00
6609;DHT22;61468;48.79282455;9.06262200;2022-08-01T10:11:10;25.60;1.00
6609;DHT22;61468;48.79282455;9.06262200;2022-08-01T10:13:56;25.60;1.00
6609;DHT22;61468;48.79282455;9.06262200;2022-08-01T10:16:41;25.60;1.00
6609;DHT22;61468;48.79282455;9.06262200;2022-08-01T10:19:28;25.70;1.00
6609;DHT22;61468;48.79282455;9.06262200;2022-08-01T10:22:14;25.70;1.00
6609;DHT22;61468;48.79282455;9.06262200;2022-08-01T10:25:05;25.70;1.00
6609;DHT22;61468;48.79282455;9.06262200;2022-08-01T10:27:51;25.70;1.00
6609;DHT22;61468;48.79282455;9.06262200;2022-08-01T10:30:41;25.70;1.00
6609;DHT22;61468;48.79282455;9.06262200;2022-08-01T10:33:25;25.60;1.00
6609;DHT22;61468;48.79282455;9.06262200;2022-08-01T10:36:10;25.70;1.00
6609;DHT22;61468;48.79282455;9.06262200;2022-08-01T10:38:55;25.70;1.00
6609;DHT22;61468;48.79282455;9.06262200;2022-08-01T10:41:40;25.70;1.00
6609;DHT22;61468;48.79282455;9.06262200;2022-08-01T10:44:26;25.70;1.00
6609;DHT22;61468;48.79282455;9.06262200;2022-08-01T10:47:12;25.80;1.00
6609;DHT22;61468;48.79282455;9.06262200;2022-08-01T10:53:13;25.70;1.00
6609;DHT22;61468;48.79282455;9.06262200;2022-08-01T10:56:03;25.80;1.00
6609;DHT22;61468;48.79282455;9.06262200;2022-08-01T10:58:48;25.80;1.00
6609;DHT22;61468;48.79282455;9.06262200;2022-08-01T11:01:33;25.80;1.00
6609;DHT22;61468;48.79282455;9.06262200;2022-08-01T11:04:17;25.80;1.00
6609;DHT22;61468;48.79282455;9.06262200;2022-08-01T11:07:07;25.80;1.00
6609;DHT22;61468;48.79282455;9.06262200;2022-08-01T11:10:10;25.80;1.00
6609;DHT22;61468;48.79282455;9.06262200;2022-08-01T11:12:58;25.80;1.00
6609;DHT22;61468;48.79282455;9.06262200;2022-08-01T11:15:45;25.80;1.00
6609;DHT22;61468;48.79282455;9.06262200;2022-08-01T11:18:30;25.90;1.00
6609;DHT22;61468;48.79282455;9.06262200;2022-08-01T11:21:15;25.90;1.00
6609;DHT22;61468;48.79282455;9.06262200;2022-08-01T11:23:59;25.90;1.00
6609;DHT22;61468;48.79282455;9.06262200;2022-08-01T11:32:57;26.00;1.00
6609;DHT22;61468;48.79282455;9.06262200;2022-08-01T11:36:16;26.00;1.00
6609;DHT22;61468;48.79282455;9.06262200;2022-08-01T11:41:45;26.00;1.00
6609;DHT22;61468;48.79282455;9.06262200;2022-08-01T11:44:50;26.00;1.00
6609;DHT22;61468;48.79282455;9.06262200;2022-08-01T11:47:47;26.00;1.00
6609;DHT22;61468;48.79282455;9.06262200;2022-08-01T11:50:33;26.00;1.00
6609;DHT22;61468;48.79282455;9.06262200;2022-08-01T11:53:17;26.00;1.00
6609;DHT22;61468;48.79282455;9.06262200;2022-08-01T11:56:03;26.10;1.00
6609;DHT22;61468;48.79282455;9.06262200;2022-08-01T11:58:47;26.10;1.00
6609;DHT22;61468;48.79282455;9.06262200;2022-08-01T12:01:32;26.10;1.00
6609;DHT22;61468;48.79282455;9.06262200;2022-08-01T12:04:18;26.10;1.00
6609;DHT22;61468;48.79282455;9.06262200;2022-08-01T12:07:15;26.20;1.00
6609;DHT22;61468;48.79282455;9.06262200;2022-08-01T12:10:27;26.20;1.00
6609;DHT22;61468;48.79282455;9.06262200;2022-08-01T12:13:12;26.30;1.00
6609;DHT22;61468;48.79282455;9.06262200;2022-08-01T12:16:06;26.20;1.00
6609;DHT22;61468;48.79282455;9.06262200;2022-08-01T12:18:50;26.20;1.00
6609;DHT22;61468;48.79282455;9.06262200;2022-08-01T12:21:34;26.10;1.00
6609;DHT22;61468;48.79282455;9.06262200;2022-08-01T12:24:22;26.10;1.00
6609;DHT22;61468;48.79282455;9.06262200;2022-08-01T12:27:08;26.10;1.00
6609;DHT22;61468;48.79282455;9.06262200;2022-08-01T12:29:52;26.20;1.00
6609;DHT22;61468;48.79282455;9.06262200;2022-08-01T12:32:38;26.30;1.00
6609;DHT22;61468;48.79282455;9.06262200;2022-08-01T12:35:25;26.30;1.00
6609;DHT22;61468;48.79282455;9.06262200;2022-08-01T12:38:15;26.40;1.00
6609;DHT22;61468;48.79282455;9.06262200;2022-08-01T12:41:00;26.30;1.00
6609;DHT22;61468;48.79282455;9.06262200;2022-08-01T12:43:44;26.30;1.00
6609;DHT22;61468;48.79282455;9.06262200;2022-08-01T12:46:28;26.30;1.00
6609;DHT22;61468;48.79282455;9.06262200;2022-08-01T12:49:13;26.30;1.00
6609;DHT22;61468;48.79282455;9.06262200;2022-08-01T12:51:57;26.30;1.00
6609;DHT22;61468;48.79282455;9.06262200;2022-08-01T12:57:46;26.20;1.00
6609;DHT22;61468;48.79282455;9.06262200;2022-08-01T13:00:35;26.20;1.00
6609;DHT22;61468;48.79282455;9.06262200;2022-08-01T13:03:20;26.30;1.00
6609;DHT22;61468;48.79282455;9.06262200;2022-08-01T13:06:12;26.30;1.00
6609;DHT22;61468;48.79282455;9.06262200;2022-08-01T13:09:08;26.30;1.00
6609;DHT22;61468;48.79282455;9.06262200;2022-08-01T13:11:55;26.30;1.00
6609;DHT22;61468;48.79282455;9.06262200;2022-08-01T13:14:39;26.30;1.00
6609;DHT22;61468;48.79282455;9.06262200;2022-08-01T13:17:34;26.40;1.00
6609;DHT22;61468;48.79282455;9.06262200;2022-08-01T13:20:33;26.40;1.00
6609;DHT22;61468;48.79282455;9.06262200;2022-08-01T13:23:19;26.50;1.00
6609;DHT22;61468;48.79282455;9.06262200;2022-08-01T13:26:03;26.40;1.00
6609;DHT22;61468;48.79282455;9.06262200;2022-08-01T13:29:06;26.40;1.00
6609;DHT22;61468;48.79282455;9.06262200;2022-08-01T13:31:51;26.40;1.00
6609;DHT22;61468;48.79282455;9.06262200;2022-08-01T13:34:35;26.30;1.00
6609;DHT22;61468;48.79282455;9.06262200;2022-08-01T13:37:21;26.40;1.00
6609;DHT22;61468;48.79282455;9.06262200;2022-08-01T13:40:06;26.50;1.00
6609;DHT22;61468;48.79282455;9.06262200;2022-08-01T13:42:51;26.50;1.00
6609;DHT22;61468;48.79282455;9.06262200;2022-08-01T13:45:35;26.40;1.00
6609;DHT22;61468;48.79282455;9.06262200;2022-08-01T13:48:19;26.40;1.00
6609;DHT22;61468;48.79282455;9.06262200;2022-08-01T13:51:03;26.40;1.00
6609;DHT22;61468;48.79282455;9.06262200;2022-08-01T13:53:47;26.30;1.00
6609;DHT22;61468;48.79282455;9.06262200;2022-08-01T13:56:32;26.40;1.00
6609;DHT22;61468;48.79282455;9.06262200;2022-08-01T13:59:16;26.40;1.00
6609;DHT22;61468;48.79282455;9.06262200;2022-08-01T14:02:00;26.40;1.00
6609;DHT22;61468;48.79282455;9.06262200;2022-08-01T14:04:44;26.50;1.00
6609;DHT22;61468;48.79282455;9.06262200;2022-08-01T14:07:27;26.50;1.00
6609;DHT22;61468;48.79282455;9.06262200;2022-08-01T14:10:12;26.50;1.00
6609;DHT22;61468;48.79282455;9.06262200;2022-08-01T14:12:56;26.50;1.00
6609;DHT22;61468;48.79282455;9.06262200;2022-08-01T14:15:41;26.50;1.00
6609;DHT22;61468;48.79282455;9.06262200;2022-08-01T14:18:26;26.50;1.00
6609;DHT22;61468;48.79282455;9.06262200;2022-08-01T14:21:10;26.60;1.00
6609;DHT22;61468;48.79282455;9.06262200;2022-08-01T14:23:55;26.50;1.00
6609;DHT22;61468;48.79282455;9.06262200;2022-08-01T14:26:39;26.60;1.00
6609;DHT22;61468;48.79282455;9.06262200;2022-08-01T14:29:22;26.60;1.00
6609;DHT22;61468;48.79282455;9.06262200;2022-08-01T14:32:06;26.50;1.00
6609;DHT22;61468;48.79282455;9.06262200;2022-08-01T14:34:50;26.50;1.00
6609;DHT22;61468;48.79282455;9.06262200;2022-08-01T14:37:35;26.60;1.00
6609;DHT22;61468;48.79282455;9.06262200;2022-08-01T14:40:19;26.70;1.00
6609;DHT22;61468;48.79282455;9.06262200;2022-08-01T14:43:03;26.80;1.00
6609;DHT22;61468;48.79282455;9.06262200;2022-08-01T14:45:47;26.80;1.00
6609;DHT22;61468;48.79282455;9.06262200;2022-08-01T14:48:34;26.80;1.00
6609;DHT22;61468;48.79282455;9.06262200;2022-08-01T14:51:18;26.80;1.00
6609;DHT22;61468;48.79282455;9.06262200;2022-08-01T14:54:02;26.80;1.00
6609;DHT22;61468;48.79282455;9.06262200;2022-08-01T14:56:46;26.70;1.00
6609;DHT22;61468;48.79282455;9.06262200;2022-08-01T14:59:29;26.70;1.00
6609;DHT22;61468;48.79282455;9.06262200;2022-08-01T15:02:13;26.70;1.00
6609;DHT22;61468;48.79282455;9.06262200;2022-08-01T15:05:00;26.70;1.00
6609;DHT22;61468;48.79282455;9.06262200;2022-08-01T15:07:44;26.70;1.00
6609;DHT22;61468;48.79282455;9.06262200;2022-08-01T15:10:28;26.70;1.00
6609;DHT22;61468;48.79282455;9.06262200;2022-08-01T15:13:12;26.70;1.00
6609;DHT22;61468;48.79282455;9.06262200;2022-08-01T15:15:57;26.70;1.00
6609;DHT22;61468;48.79282455;9.06262200;2022-08-01T15:18:42;26.80;1.00
6609;DHT22;61468;48.79282455;9.06262200;2022-08-01T15:21:26;26.80;1.00
6609;DHT22;61468;48.79282455;9.06262200;2022-08-01T15:24:10;26.70;1.00
6609;DHT22;61468;48.79282455;9.06262200;2022-08-01T15:26:54;26.70;1.00
6609;DHT22;61468;48.79282455;9.06262200;2022-08-01T15:29:38;26.80;1.00
6609;DHT22;61468;48.79282455;9.06262200;2022-08-01T15:32:22;26.80;1.00
6609;DHT22;61468;48.79282455;9.06262200;2022-08-01T15:35:07;26.80;1.00
6609;DHT22;61468;48.79282455;9.06262200;2022-08-01T15:37:53;26.80;1.00
6609;DHT22;61468;48.79282455;9.06262200;2022-08-01T15:40:37;26.80;1.00
6609;DHT22;61468;48.79282455;9.06262200;2022-08-01T15:43:21;26.80;1.00
6609;DHT22;61468;48.79282455;9.06262200;2022-08-01T15:46:06;26.70;1.00
6609;DHT22;61468;48.79282455;9.06262200;2022-08-01T15:48:50;26.70;1.00
6609;DHT22;61468;48.79282455;9.06262200;2022-08-01T15:51:34;26.70;1.00
6609;DHT22;61468;48.79282455;9.06262200;2022-08-01T15:54:18;26.70;1.00
6609;DHT22;61468;48.79282455;9.06262200;2022-08-01T15:57:02;26.60;1.00
6609;DHT22;61468;48.79282455;9.06262200;2022-08-01T15:59:47;26.60;1.00
6609;DHT22;61468;48.79282455;9.06262200;2022-08-01T16:02:31;26.60;1.00